createdAt,value
2023-02-01T00:00:29.219Z,95945.03
2023-02-01T00:02:55.765Z,95952.00
2023-02-01T00:05:22.361Z,95942.56
2023-02-01T00:07:49.240Z,95946.88
2023-02-01T00:10:16.613Z,95937.75
2023-02-01T00:12:43.315Z,95931.56
2023-02-01T00:15:10.619Z,95942.84
2023-02-01T00:17:37.278Z,95930.47
2023-02-01T00:20:04.169Z,95931.56
2023-02-01T00:22:30.870Z,95930.75
2023-02-01T00:24:57.381Z,95931.56
2023-02-01T00:27:23.837Z,95929.94
2023-02-01T00:29:50.527Z,95932.34
2023-02-01T00:32:17.007Z,95927.78
2023-02-01T00:34:43.651Z,95922.94
2023-02-01T00:37:10.172Z,95918.66
2023-02-01T00:39:36.677Z,95915.13
2023-02-01T00:42:03.215Z,95921.06
2023-02-01T00:44:29.778Z,95918.06
2023-02-01T00:46:56.449Z,95915.94
2023-02-01T00:49:22.994Z,95911.34
2023-02-01T00:51:49.541Z,95910.81
2023-02-01T00:54:16.085Z,95906.22
2023-02-01T00:56:42.637Z,95906.22
2023-02-01T00:59:13.089Z,95914.31
2023-02-01T01:01:39.995Z,95911.34
2023-02-01T01:04:06.663Z,95911.34
2023-02-01T01:06:35.068Z,95913.25
2023-02-01T01:09:07.107Z,95908.66
2023-02-01T01:11:36.759Z,95926.16
2023-02-01T01:14:06.536Z,95914.56
2023-02-01T01:16:34.052Z,95919.97
2023-02-01T01:19:01.642Z,95916.97
2023-02-01T01:21:29.312Z,95915.38
2023-02-01T01:23:56.088Z,95913.47
2023-02-01T01:26:26.234Z,95905.41
2023-02-01T01:28:53.060Z,95911.00
2023-02-01T01:31:20.890Z,95903.22
2023-02-01T01:33:52.624Z,95895.94
2023-02-01T01:36:19.836Z,95904.53
2023-02-01T01:38:46.679Z,95897.53
2023-02-01T01:41:19.406Z,95902.34
2023-02-01T01:43:53.297Z,95897.78
2023-02-01T01:46:39.472Z,95896.41
2023-02-01T01:49:06.092Z,95894.56
2023-02-01T01:51:38.742Z,95886.75
2023-02-01T01:54:12.984Z,95887.00
2023-02-01T01:56:40.855Z,95871.94
2023-02-01T01:59:07.949Z,95883.53
2023-02-01T02:01:35.698Z,95869.00
2023-02-01T02:04:03.075Z,95853.69
2023-02-01T02:06:43.573Z,95848.88
2023-02-01T02:09:10.256Z,95853.97
2023-02-01T02:11:36.801Z,95854.50
2023-02-01T02:14:07.408Z,95849.13
2023-02-01T02:16:36.657Z,95853.72
2023-02-01T02:19:33.017Z,95848.59
2023-02-01T02:22:41.262Z,95856.94
2023-02-01T02:25:50.583Z,95851.28
2023-02-01T02:28:42.222Z,95854.78
2023-02-01T02:31:29.956Z,95860.41
2023-02-01T02:34:05.268Z,95862.00
2023-02-01T02:36:37.682Z,95859.09
2023-02-01T02:39:18.019Z,95859.34
2023-02-01T02:42:07.007Z,95860.94
2023-02-01T02:44:44.316Z,95865.53
2023-02-01T02:47:18.401Z,95863.63
2023-02-01T02:50:04.250Z,95863.09
2023-02-01T02:52:33.068Z,95857.47
2023-02-01T02:55:02.449Z,95855.59
2023-02-01T02:57:33.254Z,95851.81
2023-02-01T03:00:02.767Z,95845.91
2023-02-01T03:02:31.784Z,95850.75
2023-02-01T03:04:58.222Z,95844.28
2023-02-01T03:07:44.954Z,95848.06
2023-02-01T03:10:24.598Z,95852.34
2023-02-01T03:12:53.905Z,95844.31
2023-02-01T03:15:25.918Z,95842.19
2023-02-01T03:17:54.459Z,95844.31
2023-02-01T03:20:22.035Z,95835.16
2023-02-01T03:22:51.135Z,95838.16
2023-02-01T03:25:23.763Z,95822.28
2023-02-01T03:27:58.041Z,95829.00
2023-02-01T03:30:29.413Z,95830.88
2023-02-01T03:32:59.386Z,95834.09
2023-02-01T03:35:55.519Z,95836.53
2023-02-01T03:38:59.551Z,95827.66
2023-02-01T03:41:33.624Z,95831.41
2023-02-01T03:44:11.086Z,95830.09
2023-02-01T03:46:47.657Z,95828.50
2023-02-01T03:49:23.629Z,95824.44
2023-02-01T03:51:52.207Z,95825.78
2023-02-01T03:54:19.725Z,95820.16
2023-02-01T03:56:49.460Z,95825.00
2023-02-01T03:59:16.587Z,95813.69
2023-02-01T04:01:43.167Z,95815.28
2023-02-01T04:04:10.943Z,95802.94
2023-02-01T04:06:39.003Z,95812.34
2023-02-01T04:09:06.130Z,95806.97
2023-02-01T04:11:32.636Z,95800.25
2023-02-01T04:13:59.248Z,95811.53
2023-02-01T04:16:25.941Z,95795.41
2023-02-01T04:18:55.269Z,95809.38
2023-02-01T04:21:24.788Z,95809.38
2023-02-01T04:23:51.356Z,95814.50
2023-02-01T04:26:18.005Z,95812.63
2023-02-01T04:28:44.491Z,95800.78
2023-02-01T04:31:11.157Z,95801.88
2023-02-01T04:33:37.816Z,95810.47
2023-02-01T04:36:04.552Z,95811.00
2023-02-01T04:38:31.001Z,95808.31
2023-02-01T04:40:57.721Z,95802.94
2023-02-01T04:43:24.247Z,95805.63
2023-02-01T04:45:51.820Z,95797.28
2023-02-01T04:48:19.832Z,95793.25
2023-02-01T04:50:47.655Z,95795.13
2023-02-01T04:53:17.586Z,95794.03
2023-02-01T04:55:44.914Z,95789.75
2023-02-01T04:58:12.020Z,95807.22
2023-02-01T05:00:38.874Z,95810.19
2023-02-01T05:03:05.641Z,95802.94
2023-02-01T05:05:32.217Z,95809.91
2023-02-01T05:07:59.010Z,95800.50
2023-02-01T05:10:25.723Z,95803.19
2023-02-01T05:12:52.198Z,95796.19
2023-02-01T05:15:18.746Z,95799.16
2023-02-01T05:17:45.337Z,95790.53
2023-02-01T05:20:12.236Z,95795.66
2023-02-01T05:22:38.771Z,95804.00
2023-02-01T05:25:08.151Z,95806.41
2023-02-01T05:27:35.043Z,95795.38
2023-02-01T05:30:03.231Z,95801.59
2023-02-01T05:32:29.757Z,95808.56
2023-02-01T05:34:56.324Z,95796.72
2023-02-01T05:37:22.893Z,95798.06
2023-02-01T05:39:49.443Z,95810.72
2023-02-01T05:42:16.020Z,95802.91
2023-02-01T05:44:42.948Z,95807.50
2023-02-01T05:47:09.605Z,95808.53
2023-02-01T05:49:36.135Z,95813.94
2023-02-01T05:52:02.688Z,95811.50
2023-02-01T05:54:29.193Z,95808.53
2023-02-01T05:56:55.770Z,95803.44
2023-02-01T05:59:22.258Z,95787.06
2023-02-01T06:01:48.837Z,95782.47
2023-02-01T06:04:15.704Z,95783.56
2023-02-01T06:06:42.403Z,95777.66
2023-02-01T06:09:08.947Z,95802.94
2023-02-01T06:11:35.445Z,95788.94
2023-02-01T06:14:02.062Z,95784.63
2023-02-01T06:16:29.226Z,95780.34
2023-02-01T06:18:55.852Z,95773.88
2023-02-01T06:21:22.333Z,95794.03
2023-02-01T06:23:48.948Z,95779.25
2023-02-01T06:26:15.524Z,95788.94
2023-02-01T06:28:42.134Z,95783.53
2023-02-01T06:31:08.853Z,95780.59
2023-02-01T06:33:36.824Z,95779.81
2023-02-01T06:36:07.239Z,95777.41
2023-02-01T06:38:34.345Z,95799.44
2023-02-01T06:41:01.646Z,95818.53
2023-02-01T06:43:29.005Z,95803.19
2023-02-01T06:46:04.341Z,95799.19
2023-02-01T06:48:31.689Z,95806.72
2023-02-01T06:50:58.353Z,95800.25
2023-02-01T06:53:25.447Z,95792.44
2023-02-01T06:55:55.867Z,95797.81
2023-02-01T06:58:22.903Z,95783.81
2023-02-01T07:00:49.535Z,95799.16
2023-02-01T07:03:16.168Z,95799.16
2023-02-01T07:05:42.876Z,95800.78
2023-02-01T07:08:09.359Z,95803.19
2023-02-01T07:10:35.860Z,95797.00
2023-02-01T07:13:02.532Z,95789.75
2023-02-01T07:15:29.073Z,95796.22
2023-02-01T07:17:56.292Z,95790.56
2023-02-01T07:20:23.592Z,95802.94
2023-02-01T07:22:56.221Z,95783.03
2023-02-01T07:25:22.847Z,95779.53
2023-02-01T07:27:49.456Z,95786.00
2023-02-01T07:30:16.122Z,95777.94
2023-02-01T07:32:43.260Z,95773.31
2023-02-01T07:35:09.954Z,95787.31
2023-02-01T07:37:36.463Z,95766.91
2023-02-01T07:40:03.078Z,95756.91
2023-02-01T07:42:29.578Z,95746.69
2023-02-01T07:44:56.132Z,95749.13
2023-02-01T07:47:22.601Z,95766.09
2023-02-01T07:49:49.238Z,95755.31
2023-02-01T07:52:15.731Z,95758.53
2023-02-01T07:54:42.321Z,95770.13
2023-02-01T07:57:08.827Z,95767.41
2023-02-01T07:59:35.433Z,95774.94
2023-02-01T08:02:02.012Z,95770.13
2023-02-01T08:04:28.627Z,95775.72
2023-02-01T08:06:55.096Z,95777.09
2023-02-01T08:09:21.559Z,95779.22
2023-02-01T08:11:48.008Z,95800.75
2023-02-01T08:14:14.661Z,95795.63
2023-02-01T08:16:41.253Z,95803.97
2023-02-01T08:19:07.813Z,95802.09
2023-02-01T08:21:34.287Z,95818.25
2023-02-01T08:24:00.946Z,95816.88
2023-02-01T08:26:27.590Z,95811.50
2023-02-01T08:28:56.977Z,95836.28
2023-02-01T08:31:24.981Z,95830.91
2023-02-01T08:33:57.554Z,95831.97
2023-02-01T08:36:25.355Z,95832.22
2023-02-01T08:38:52.632Z,95829.81
2023-02-01T08:41:25.215Z,95826.84
2023-02-01T08:43:52.119Z,95828.72
2023-02-01T08:46:18.889Z,95810.41
2023-02-01T08:48:47.722Z,95814.97
2023-02-01T08:51:15.923Z,95834.63
2023-02-01T08:53:42.570Z,95820.38
2023-02-01T08:56:11.721Z,95829.53
2023-02-01T08:58:38.237Z,95820.34
2023-02-01T09:01:09.992Z,95806.91
2023-02-01T09:03:36.937Z,95804.19
2023-02-01T09:06:05.443Z,95815.22
2023-02-01T09:08:33.219Z,95823.53
2023-02-01T09:11:05.179Z,95830.00
2023-02-01T09:13:31.961Z,95819.50
2023-02-01T09:15:58.668Z,95833.19
2023-02-01T09:18:25.236Z,95838.84
2023-02-01T09:20:51.726Z,95833.72
2023-02-01T09:23:18.957Z,95830.97
2023-02-01T09:25:45.647Z,95828.53
2023-02-01T09:28:12.157Z,95846.03
2023-02-01T09:30:38.844Z,95832.81
2023-02-01T09:33:05.439Z,95820.94
2023-02-01T09:35:31.974Z,95812.06
2023-02-01T09:37:58.452Z,95822.81
2023-02-01T09:40:25.573Z,95836.81
2023-02-01T09:43:18.707Z,95828.41
2023-02-01T09:46:06.160Z,95831.88
2023-02-01T09:48:38.153Z,95835.16
2023-02-01T09:51:14.549Z,95845.94
2023-02-01T09:53:48.244Z,95829.97
2023-02-01T09:56:37.735Z,95844.19
2023-02-01T09:59:31.781Z,95834.50
2023-02-01T10:01:58.685Z,95837.19
2023-02-01T10:04:25.160Z,95815.56
2023-02-01T10:07:24.961Z,95832.75
2023-02-01T10:10:09.902Z,95826.53
2023-02-01T10:12:54.406Z,95830.03
2023-02-01T10:15:29.637Z,95824.63
2023-02-01T10:18:20.675Z,95814.09
2023-02-01T10:20:56.341Z,95811.84
2023-02-01T10:23:47.809Z,95816.66
2023-02-01T10:26:17.010Z,95825.88
2023-02-01T10:28:46.840Z,95825.03
2023-02-01T10:31:13.683Z,95823.34
2023-02-01T10:33:47.712Z,95818.22
2023-02-01T10:36:31.417Z,95821.44
2023-02-01T10:38:59.621Z,95828.41
2023-02-01T10:41:30.626Z,95841.50
2023-02-01T10:43:59.080Z,95844.66
2023-02-01T10:46:25.728Z,95843.88
2023-02-01T10:48:56.236Z,95837.91
2023-02-01T10:51:27.829Z,95844.38
2023-02-01T10:53:58.263Z,95833.88
2023-02-01T10:56:27.212Z,95829.03
2023-02-01T10:59:02.173Z,95839.25
2023-02-01T11:01:34.832Z,95834.44
2023-02-01T11:04:03.770Z,95840.88
2023-02-01T11:06:45.142Z,95837.06
2023-02-01T11:09:23.730Z,95872.19
2023-02-01T11:11:50.287Z,95841.34
2023-02-01T11:14:26.029Z,95847.91
2023-02-01T11:17:00.084Z,95831.72
2023-02-01T11:19:27.460Z,95852.53
2023-02-01T11:21:57.301Z,95858.72
2023-02-01T11:24:46.703Z,95851.72
2023-02-01T11:27:27.127Z,95858.44
2023-02-01T11:30:00.612Z,95864.91
2023-02-01T11:32:28.695Z,95851.16
2023-02-01T11:35:00.351Z,95855.19
2023-02-01T11:37:32.482Z,95861.41
2023-02-01T11:40:01.641Z,95865.69
2023-02-01T11:42:29.450Z,95856.78
2023-02-01T11:45:20.497Z,95850.91
2023-02-01T11:47:47.425Z,95861.69
2023-02-01T11:50:18.319Z,95854.69
2023-02-01T11:53:04.280Z,95860.66
2023-02-01T11:55:51.098Z,95865.00
2023-02-01T11:58:30.002Z,95839.41
2023-02-01T12:01:05.842Z,95844.28
2023-02-01T12:03:50.657Z,95843.22
2023-02-01T12:06:52.817Z,95843.28
2023-02-01T12:09:32.141Z,95817.13
2023-02-01T12:12:20.689Z,95822.91
2023-02-01T12:15:11.472Z,95807.22
2023-02-01T12:18:02.159Z,95816.66
2023-02-01T12:20:54.223Z,95800.16
2023-02-01T12:23:41.009Z,95794.28
2023-02-01T12:26:19.678Z,95795.38
2023-02-01T12:29:03.060Z,95789.69
2023-02-01T12:31:48.229Z,95807.19
2023-02-01T12:34:39.569Z,95791.00
2023-02-01T12:37:36.588Z,95795.56
2023-02-01T12:40:18.638Z,95794.22
2023-02-01T12:42:57.867Z,95806.03
2023-02-01T12:45:47.569Z,95827.06
2023-02-01T12:48:28.990Z,95798.53
2023-02-01T12:51:00.414Z,95798.00
2023-02-01T12:53:48.693Z,95796.66
2023-02-01T12:56:24.880Z,95788.88
2023-02-01T12:58:54.484Z,95791.00
2023-02-01T13:01:48.625Z,95787.31
2023-02-01T13:04:26.383Z,95770.44
2023-02-01T13:07:14.963Z,95777.91
2023-02-01T13:09:58.162Z,95773.31
2023-02-01T13:12:40.966Z,95763.69
2023-02-01T13:15:18.625Z,95791.13
2023-02-01T13:17:46.941Z,95778.97
2023-02-01T13:20:25.655Z,95769.84
2023-02-01T13:23:09.156Z,95766.34
2023-02-01T13:25:49.499Z,95769.81
2023-02-01T13:28:27.281Z,95774.69
2023-02-01T13:31:12.020Z,95764.97
2023-02-01T13:33:56.618Z,95765.75
2023-02-01T13:36:29.059Z,95765.47
2023-02-01T13:39:29.893Z,95770.59
2023-02-01T13:42:00.715Z,95761.97
2023-02-01T13:44:34.194Z,95765.78
2023-02-01T13:47:04.979Z,95789.19
2023-02-01T13:49:40.388Z,95770.88
2023-02-01T13:52:07.120Z,95760.66
2023-02-01T13:54:39.011Z,95774.13
2023-02-01T13:57:16.206Z,95776.00
2023-02-01T13:59:42.615Z,95766.06
2023-02-01T14:02:43.569Z,95763.06
2023-02-01T14:05:11.463Z,95774.69
2023-02-01T14:07:58.022Z,95772.22
2023-02-01T14:10:52.670Z,95773.31
2023-02-01T14:13:32.915Z,95769.81
2023-02-01T14:16:05.490Z,95762.78
2023-02-01T14:18:38.084Z,95759.81
2023-02-01T14:21:23.017Z,95771.44
2023-02-01T14:23:58.178Z,95763.34
2023-02-01T14:26:28.723Z,95759.81
2023-02-01T14:28:55.203Z,95757.66
2023-02-01T14:31:40.893Z,95756.31
2023-02-01T14:34:31.921Z,95765.22
2023-02-01T14:37:01.628Z,95766.03
2023-02-01T14:39:33.349Z,95760.66
2023-02-01T14:42:15.345Z,95763.91
2023-02-01T14:44:58.635Z,95777.66
2023-02-01T14:47:26.373Z,95771.72
2023-02-01T14:50:11.099Z,95765.84
2023-02-01T14:52:44.278Z,95772.56
2023-02-01T14:55:28.599Z,95768.88
2023-02-01T14:57:58.960Z,95784.16
2023-02-01T15:00:29.241Z,95791.69
2023-02-01T15:03:14.648Z,95770.97
2023-02-01T15:05:41.146Z,95770.44
2023-02-01T15:08:22.607Z,95769.66
2023-02-01T15:10:52.207Z,95776.63
2023-02-01T15:13:29.564Z,95778.28
2023-02-01T15:16:12.606Z,95787.47
2023-02-01T15:18:40.260Z,95783.13
2023-02-01T15:21:28.605Z,95768.31
2023-02-01T15:24:12.020Z,95777.78
2023-02-01T15:26:38.840Z,95783.13
2023-02-01T15:29:05.673Z,95787.47
2023-02-01T15:31:37.771Z,95799.31
2023-02-01T15:34:04.855Z,95796.66
2023-02-01T15:36:31.445Z,95799.88
2023-02-01T15:39:14.448Z,95813.09
2023-02-01T15:41:43.209Z,95814.47
2023-02-01T15:44:20.431Z,95805.59
2023-02-01T15:46:49.654Z,95810.19
2023-02-01T15:49:28.032Z,95804.81
2023-02-01T15:51:56.180Z,95837.69
2023-02-01T15:54:29.926Z,95814.03
2023-02-01T15:56:57.416Z,95803.00
2023-02-01T15:59:30.781Z,95815.69
2023-02-01T16:01:57.370Z,95817.03
2023-02-01T16:04:26.658Z,95797.69
2023-02-01T16:06:54.423Z,95826.25
2023-02-01T16:09:35.735Z,95829.78
2023-02-01T16:12:04.183Z,95830.84
2023-02-01T16:14:31.113Z,95828.44
2023-02-01T16:16:59.649Z,95836.53
2023-02-01T16:19:26.168Z,95836.00
2023-02-01T16:21:52.678Z,95827.94
2023-02-01T16:24:19.177Z,95827.66
2023-02-01T16:26:45.796Z,95830.06
2023-02-01T16:29:12.316Z,95818.53
2023-02-01T16:31:40.380Z,95830.34
2023-02-01T16:34:07.229Z,95844.31
2023-02-01T16:36:35.062Z,95851.63
2023-02-01T16:39:01.620Z,95851.84
2023-02-01T16:41:28.084Z,95854.31
2023-02-01T16:43:55.807Z,95852.69
2023-02-01T16:46:26.000Z,95858.91
2023-02-01T16:48:56.420Z,95885.00
2023-02-01T16:51:25.546Z,95851.84
2023-02-01T16:53:54.789Z,95864.00
2023-02-01T16:56:25.160Z,95865.34
2023-02-01T16:58:52.083Z,95847.59
2023-02-01T17:01:20.038Z,95848.38
2023-02-01T17:03:47.118Z,95840.84
2023-02-01T17:06:17.299Z,95845.69
2023-02-01T17:08:46.559Z,95840.59
2023-02-01T17:11:13.766Z,95843.28
2023-02-01T17:13:41.536Z,95843.00
2023-02-01T17:16:23.442Z,95837.06
2023-02-01T17:19:09.701Z,95842.44
2023-02-01T17:21:46.319Z,95825.22
2023-02-01T17:24:15.000Z,95812.53
2023-02-01T17:26:42.416Z,95823.34
2023-02-01T17:29:09.251Z,95813.38
2023-02-01T17:31:41.928Z,95816.59
2023-02-01T17:34:12.936Z,95823.59
2023-02-01T17:36:39.488Z,95809.56
2023-02-01T17:39:06.708Z,95823.84
2023-02-01T17:41:33.768Z,95818.22
2023-02-01T17:44:00.739Z,95812.53
2023-02-01T17:46:27.422Z,95821.97
2023-02-01T17:48:54.874Z,95814.94
2023-02-01T17:51:23.682Z,95816.84
2023-02-01T17:53:50.304Z,95827.34
2023-02-01T17:56:19.409Z,95826.50
2023-02-01T17:58:46.445Z,95802.56
2023-02-01T18:01:15.518Z,95817.88
2023-02-01T18:03:42.493Z,95810.63
2023-02-01T18:06:18.530Z,95826.75
2023-02-01T18:08:45.541Z,95806.03
2023-02-01T18:11:15.710Z,95809.00
2023-02-01T18:13:42.954Z,95820.00
2023-02-01T18:16:21.343Z,95813.00
2023-02-01T18:18:48.411Z,95812.97
2023-02-01T18:21:17.049Z,95801.69
2023-02-01T18:23:43.959Z,95812.72
2023-02-01T18:26:15.963Z,95811.59
2023-02-01T18:28:43.235Z,95830.72
2023-02-01T18:31:25.508Z,95810.25
2023-02-01T18:33:54.236Z,95822.63
2023-02-01T18:36:20.973Z,95844.72
2023-02-01T18:38:47.571Z,95814.53
2023-02-01T18:41:17.117Z,95833.69
2023-02-01T18:43:44.031Z,95827.47
2023-02-01T18:46:11.452Z,95840.38
2023-02-01T18:48:38.552Z,95834.44
2023-02-01T18:51:05.759Z,95838.50
2023-02-01T18:53:32.545Z,95832.28
2023-02-01T18:55:59.551Z,95821.78
2023-02-01T18:58:27.211Z,95819.06
2023-02-01T19:00:55.602Z,95821.53
2023-02-01T19:03:23.224Z,95796.25
2023-02-01T19:05:50.436Z,95800.53
2023-02-01T19:08:16.914Z,95805.34
2023-02-01T19:10:43.520Z,95813.13
2023-02-01T19:13:13.534Z,95811.81
2023-02-01T19:15:41.205Z,95804.53
2023-02-01T19:18:09.152Z,95825.56
2023-02-01T19:20:38.773Z,95803.19
2023-02-01T19:23:05.435Z,95805.91
2023-02-01T19:25:31.903Z,95798.63
2023-02-01T19:27:58.381Z,95803.72
2023-02-01T19:30:25.643Z,95813.97
2023-02-01T19:32:52.492Z,95801.06
2023-02-01T19:35:21.234Z,95802.38
2023-02-01T19:37:48.820Z,95806.97
2023-02-01T19:40:19.191Z,95801.31
2023-02-01T19:42:46.487Z,95796.72
2023-02-01T19:45:13.250Z,95809.13
2023-02-01T19:47:39.798Z,95794.06
2023-02-01T19:50:07.319Z,95805.31
2023-02-01T19:52:34.922Z,95783.81
2023-02-01T19:55:01.762Z,95795.09
2023-02-01T19:57:29.435Z,95791.38
2023-02-01T19:59:56.134Z,95807.00
2023-02-01T20:02:21.917Z,95800.00
2023-02-01T20:04:48.455Z,95787.09
2023-02-01T20:07:15.010Z,95808.13
2023-02-01T20:09:41.654Z,95782.50
2023-02-01T20:12:09.603Z,95800.53
2023-02-01T20:14:36.647Z,95811.81
2023-02-01T20:17:04.758Z,95814.53
2023-02-01T20:19:31.687Z,95812.41
2023-02-01T20:21:58.203Z,95808.88
2023-02-01T20:24:25.354Z,95811.53
2023-02-01T20:26:53.151Z,95815.63
2023-02-01T20:29:19.767Z,95796.28
2023-02-01T20:31:46.838Z,95820.47
2023-02-01T20:34:13.601Z,95815.88
2023-02-01T20:36:40.295Z,95822.03
2023-02-01T20:39:06.840Z,95818.84
2023-02-01T20:41:33.400Z,95816.66
2023-02-01T20:44:00.043Z,95812.41
2023-02-01T20:46:26.588Z,95840.41
2023-02-01T20:48:53.074Z,95813.44
2023-02-01T20:51:21.354Z,95810.72
2023-02-01T20:53:49.376Z,95818.31
2023-02-01T20:56:15.999Z,95827.72
2023-02-01T20:58:43.128Z,95802.66
2023-02-01T21:01:10.213Z,95815.59
2023-02-01T21:03:36.788Z,95828.00
2023-02-01T21:06:04.626Z,95818.81
2023-02-01T21:08:32.193Z,95805.88
2023-02-01T21:11:05.436Z,95813.72
2023-02-01T21:13:33.796Z,95806.19
2023-02-01T21:16:00.589Z,95825.25
2023-02-01T21:18:27.508Z,95792.13
2023-02-01T21:20:54.432Z,95796.97
2023-02-01T21:23:20.962Z,95799.44
2023-02-01T21:25:48.046Z,95808.34
2023-02-01T21:28:14.838Z,95777.63
2023-02-01T21:30:41.506Z,95820.72
2023-02-01T21:33:08.117Z,95788.97
2023-02-01T21:35:34.690Z,95793.53
2023-02-01T21:38:01.190Z,95786.81
2023-02-01T21:40:27.692Z,95804.66
2023-02-01T21:42:54.214Z,95779.63
2023-02-01T21:45:20.787Z,95772.88
2023-02-01T21:47:48.898Z,95784.50
2023-02-01T21:50:18.349Z,95781.00
2023-02-01T21:52:45.112Z,95774.25
2023-02-01T21:55:12.991Z,95796.03
2023-02-01T21:57:39.827Z,95788.00
2023-02-01T22:00:08.708Z,95776.19
2023-02-01T22:02:35.971Z,95795.28
2023-02-01T22:05:04.629Z,95790.13
2023-02-01T22:07:32.904Z,95794.19
2023-02-01T22:09:59.334Z,95796.91
2023-02-01T22:12:25.880Z,95793.66
2023-02-01T22:14:52.547Z,95809.81
2023-02-01T22:17:19.052Z,95795.03
2023-02-01T22:19:45.540Z,95791.78
2023-02-01T22:22:12.021Z,95796.66
2023-02-01T22:24:38.597Z,95792.63
2023-02-01T22:27:14.071Z,95789.72
2023-02-01T22:29:41.522Z,95799.13
2023-02-01T22:32:08.940Z,95807.75
2023-02-01T22:34:35.634Z,95783.25
2023-02-01T22:37:02.093Z,95784.31
2023-02-01T22:39:28.678Z,95788.63
2023-02-01T22:41:55.208Z,95807.22
2023-02-01T22:44:21.764Z,95803.13
2023-02-01T22:46:48.245Z,95810.94
2023-02-01T22:49:15.421Z,95801.00
2023-02-01T22:51:42.384Z,95801.78
2023-02-01T22:54:16.946Z,95795.28
2023-02-01T22:56:43.714Z,95806.91
2023-02-01T22:59:12.765Z,95800.69
2023-02-01T23:01:39.367Z,95795.56
2023-02-01T23:04:10.584Z,95800.69
2023-02-01T23:06:37.285Z,95789.97
2023-02-01T23:09:07.770Z,95804.47
2023-02-01T23:11:34.228Z,95790.50
2023-02-01T23:14:00.674Z,95795.34
2023-02-01T23:16:27.482Z,95789.41
2023-02-01T23:18:54.151Z,95791.06
2023-02-01T23:21:22.411Z,95781.88
2023-02-01T23:23:52.884Z,95792.94
2023-02-01T23:26:21.024Z,95790.25
2023-02-01T23:28:47.963Z,95786.75
2023-02-01T23:31:14.798Z,95786.75
2023-02-01T23:33:44.053Z,95786.22
2023-02-01T23:36:12.823Z,95783.81
2023-02-01T23:38:39.513Z,95793.47
2023-02-01T23:41:07.561Z,95799.66
2023-02-01T23:43:34.341Z,95791.03
2023-02-01T23:46:00.854Z,95804.50
2023-02-01T23:48:30.121Z,95797.25
2023-02-01T23:50:56.707Z,95801.78
2023-02-01T23:53:23.436Z,95795.34
2023-02-01T23:55:56.235Z,95803.69
2023-02-01T23:58:23.346Z,95810.16
